Time;durP1;ratioP1;P1;durP2;ratioP2;P2;SDS_P1;SDS_P2;PMS_P1;PMS_P2;Temp;Humidity;BMP_temperature;BMP_pressure;BME280_temperature;BME280_humidity;BME280_pressure;Samples;Min_cycle;Max_cycle;Signal;HPM_P1;HPM_P2
2023/01/17 00:02:19;;;;;;;1.70;1.00;;;;;;;3.76;96.73;97078.17;109051;1252;70164;-78
2023/01/17 00:10:27;;;;;;;2.20;1.00;;;;;;;3.73;96.79;97081.02;107554;1253;74707;-77
2023/01/17 00:12:59;;;;;;;2.10;1.30;;;;;;;3.72;96.89;97074.10;107308;1252;69653;-77
2023/01/17 00:15:28;;;;;;;2.20;1.40;;;;;;;3.71;96.78;97078.30;107363;1253;72440;-77
2023/01/17 00:17:55;;;;;;;2.60;1.60;;;;;;;3.68;97.05;97078.96;107515;1254;60965;-77
2023/01/17 00:26:09;;;;;;;3.00;2.00;;;;;;;3.64;97.22;97084.11;107429;1253;71071;-76
2023/01/17 01:33:53;;;;;;;5.30;3.20;;;;;;;3.08;100.00;97144.62;107607;1253;70437;-79
2023/01/17 01:36:20;;;;;;;4.60;3.40;;;;;;;3.10;100.00;97146.30;107489;1253;70457;-78
2023/01/17 01:38:49;;;;;;;4.40;3.20;;;;;;;3.10;100.00;97147.50;107380;1254;60925;-77
2023/01/17 01:41:19;;;;;;;5.10;3.70;;;;;;;3.13;100.00;97140.69;107291;1253;60408;-80
2023/01/17 01:43:49;;;;;;;7.70;4.30;;;;;;;3.14;100.00;97141.87;107753;1254;72935;-77
2023/01/17 01:46:40;;;;;;;4.50;3.50;;;;;;;3.15;100.00;97146.98;109036;1252;68966;-74
2023/01/17 01:49:17;;;;;;;5.40;3.50;;;;;;;3.17;100.00;97152.36;107817;1256;72412;-78
2023/01/17 01:51:51;;;;;;;4.00;3.30;;;;;;;3.19;100.00;97156.86;106623;1253;60977;-77
2023/01/17 01:54:40;;;;;;;4.90;3.60;;;;;;;3.19;100.00;97155.30;106947;1252;60359;-77
2023/01/17 01:57:11;;;;;;;4.40;3.70;;;;;;;3.21;99.94;97163.52;106708;1253;73647;-76
2023/01/17 01:59:43;;;;;;;4.50;3.70;;;;;;;3.22;99.93;97163.61;106470;1253;71292;-76
2023/01/17 02:02:10;;;;;;;5.10;4.20;;;;;;;3.22;99.51;97166.81;106557;1259;72363;-79
2023/01/17 02:04:41;;;;;;;5.70;4.30;;;;;;;3.23;99.19;97164.60;106911;1254;60486;-77
2023/01/17 02:07:31;;;;;;;6.00;4.80;;;;;;;3.24;99.05;97161.73;106759;1252;60365;-77
2023/01/17 02:10:08;;;;;;;4.70;4.00;;;;;;;3.23;98.95;97167.95;107090;1256;72372;-77
2023/01/17 02:12:36;;;;;;;4.70;3.50;;;;;;;3.23;98.11;97172.59;107412;1256;71196;-78
2023/01/17 02:15:05;;;;;;;4.40;3.40;;;;;;;3.22;98.12;97174.13;107124;1256;72420;-75
2023/01/17 02:18:15;;;;;;;4.40;3.80;;;;;;;3.20;98.02;97185.13;107621;1254;60247;-77
2023/01/17 02:20:57;;;;;;;4.50;3.60;;;;;;;3.20;97.37;97188.52;107752;1253;60068;-77
2023/01/17 02:23:47;;;;;;;3.60;2.80;;;;;;;3.20;97.47;97181.56;107672;1254;72443;-77
2023/01/17 02:26:19;;;;;;;4.40;3.60;;;;;;;3.19;97.80;97184.42;107752;1253;70918;-76
2023/01/17 02:29:09;;;;;;;4.50;3.00;;;;;;;3.15;97.98;97190.52;106965;1253;73087;-77
2023/01/17 02:31:51;;;;;;;3.30;2.60;;;;;;;3.11;97.53;97193.39;107567;1252;61197;-77
2023/01/17 02:34:27;;;;;;;2.30;1.90;;;;;;;3.09;97.58;97198.33;107251;1254;60447;-77
2023/01/17 02:37:00;;;;;;;3.00;2.20;;;;;;;3.06;97.80;97200.20;107097;1253;72292;-77
2023/01/17 02:39:36;;;;;;;3.10;2.20;;;;;;;3.05;98.07;97203.52;107570;1253;70021;-77
2023/01/17 02:42:13;;;;;;;3.20;2.50;;;;;;;3.04;98.56;97210.48;107131;1254;71476;-77
2023/01/17 02:44:42;;;;;;;2.70;2.10;;;;;;;3.00;98.86;97211.60;107224;1254;62064;-77
2023/01/17 02:47:24;;;;;;;2.90;2.40;;;;;;;2.97;98.71;97223.67;107416;1253;60370;-77
2023/01/17 02:49:54;;;;;;;3.10;2.30;;;;;;;2.96;98.87;97221.81;107558;1254;73989;-77
2023/01/17 02:52:33;;;;;;;2.90;2.10;;;;;;;2.98;98.93;97224.98;107359;1253;69924;-76
2023/01/17 02:55:06;;;;;;;2.70;1.90;;;;;;;2.95;99.07;97235.08;109194;1253;72744;-76
2023/01/17 02:57:51;;;;;;;3.00;2.40;;;;;;;2.93;99.59;97232.42;108346;1253;60709;-78
2023/01/17 03:00:26;;;;;;;3.30;2.50;;;;;;;2.95;99.76;97234.72;107515;1253;60317;-77
2023/01/17 03:03:26;;;;;;;3.40;2.40;;;;;;;2.95;99.74;97245.39;107749;1256;73930;-77
2023/01/17 03:06:14;;;;;;;3.60;2.80;;;;;;;2.94;99.90;97246.45;107062;1253;69971;-78
2023/01/17 03:08:44;;;;;;;3.70;2.80;;;;;;;2.94;99.92;97247.90;106915;1256;72502;-77
2023/01/17 03:11:15;;;;;;;4.00;3.10;;;;;;;2.93;100.00;97262.92;106742;1254;60264;-77
2023/01/17 03:13:42;;;;;;;3.60;3.00;;;;;;;2.95;100.00;97262.18;106821;1254;60358;-78
2023/01/17 03:16:22;;;;;;;3.30;2.80;;;;;;;2.95;100.00;97269.62;106878;1254;71449;-76
2023/01/17 03:18:52;;;;;;;3.90;2.80;;;;;;;2.96;99.88;97273.86;107240;1254;72073;-78
2023/01/17 03:21:21;;;;;;;3.80;2.80;;;;;;;2.97;99.70;97279.33;106642;1253;72679;-77
2023/01/17 03:23:50;;;;;;;3.20;2.40;;;;;;;2.99;99.53;97280.05;106589;1253;60959;-78
2023/01/17 03:26:20;;;;;;;3.30;2.30;;;;;;;3.01;99.68;97278.95;106503;1254;60536;-76
2023/01/17 03:29:07;;;;;;;3.40;2.60;;;;;;;3.04;99.17;97279.00;106416;1254;73195;-77
2023/01/17 03:31:52;;;;;;;2.80;2.40;;;;;;;3.06;99.04;97286.70;106580;1256;70700;-76
2023/01/17 03:34:20;;;;;;;3.40;2.30;;;;;;;3.07;98.18;97296.64;106598;1254;71127;-78
2023/01/17 03:36:50;;;;;;;2.90;2.00;;;;;;;3.09;98.03;97289.93;107017;1254;61033;-77
2023/01/17 03:39:19;;;;;;;2.70;1.80;;;;;;;3.12;98.14;97296.36;106481;1255;61713;-77
2023/01/17 03:41:49;;;;;;;3.00;2.10;;;;;;;3.11;97.68;97295.37;106441;1253;73381;-78
2023/01/17 03:44:25;;;;;;;2.40;1.90;;;;;;;3.11;97.33;97301.27;106202;1253;71015;-75
2023/01/17 03:46:51;;;;;;;2.50;1.80;;;;;;;3.12;97.34;97300.42;106400;1257;70490;-76
2023/01/17 03:49:22;;;;;;;2.40;1.90;;;;;;;3.13;97.00;97302.68;106412;1254;60416;-75
2023/01/17 03:51:51;;;;;;;2.40;1.90;;;;;;;3.13;97.23;97308.16;106580;1252;60573;-77
2023/01/17 03:54:20;;;;;;;2.20;1.70;;;;;;;3.13;96.47;97312.39;106447;1254;71965;-75
2023/01/17 03:56:50;;;;;;;2.80;2.20;;;;;;;3.15;96.76;97308.67;107011;1256;70631;-76
2023/01/17 03:59:17;;;;;;;2.80;2.00;;;;;;;3.17;96.54;97311.57;106377;1259;71196;-77
2023/01/17 04:01:44;;;;;;;2.90;1.90;;;;;;;3.17;96.43;97314.15;106848;1253;61073;-77
2023/01/17 04:04:14;;;;;;;3.20;1.90;;;;;;;3.18;96.37;97315.95;106768;1256;60523;-77
2023/01/17 04:06:56;;;;;;;2.60;2.00;;;;;;;3.18;96.65;97316.88;106572;1253;73505;-77
2023/01/17 04:09:33;;;;;;;2.10;1.50;;;;;;;3.18;96.38;97322.31;106770;1254;70890;-76
2023/01/17 04:12:03;;;;;;;2.30;1.70;;;;;;;3.19;95.66;97321.34;106876;1253;71479;-77
2023/01/17 04:14:32;;;;;;;2.70;1.80;;;;;;;3.20;95.84;97322.21;106664;1253;61265;-78
2023/01/17 04:17:03;;;;;;;2.40;1.80;;;;;;;3.21;95.70;97323.84;106478;1254;61329;-78
2023/01/17 04:19:43;;;;;;;2.30;1.60;;;;;;;3.21;95.69;97330.60;106620;1254;71661;-77
2023/01/17 04:22:12;;;;;;;2.50;1.90;;;;;;;3.22;95.17;97327.32;106788;1256;69658;-78
2023/01/17 04:24:39;;;;;;;2.40;1.90;;;;;;;3.25;95.01;97331.87;106751;1253;72384;-77
2023/01/17 04:27:26;;;;;;;2.00;1.30;;;;;;;3.27;94.70;97331.13;106671;1256;60556;-77
2023/01/17 04:30:00;;;;;;;2.80;1.70;;;;;;;3.23;94.51;97336.98;106957;1254;60344;-78
2023/01/17 04:32:50;;;;;;;2.40;2.10;;;;;;;3.24;94.13;97334.20;106745;1253;71596;-76
2023/01/17 04:35:35;;;;;;;;;;;;;;;;;;;;;
2023/01/17 04:38:02;;;;;;;3.20;1.70;;;;;;;3.26;93.69;97348.63;106715;1253;71761;-77
2023/01/17 04:40:29;;;;;;;2.50;1.70;;;;;;;3.27;93.43;97345.92;106757;1257;60562;-78
2023/01/17 04:42:56;;;;;;;1.80;1.30;;;;;;;3.28;92.67;97351.03;106960;1254;60313;-77
2023/01/17 04:45:26;;;;;;;1.80;1.30;;;;;;;3.29;92.30;97349.49;107329;1254;73847;-76
2023/01/17 04:48:04;;;;;;;1.90;1.30;;;;;;;3.30;92.43;97350.63;106973;1254;69513;-76
2023/01/17 04:50:32;;;;;;;2.70;1.30;;;;;;;3.30;92.36;97357.63;107048;1254;75116;-76
2023/01/17 04:52:59;;;;;;;2.40;1.20;;;;;;;3.28;92.52;97355.31;106776;1253;60652;-77
2023/01/17 04:55:29;;;;;;;2.40;1.40;;;;;;;3.26;92.65;97364.27;106632;1253;61061;-77
2023/01/17 04:57:56;;;;;;;2.50;1.40;;;;;;;3.27;93.34;97362.35;106961;1253;74846;-77
2023/01/17 05:00:23;;;;;;;2.40;1.50;;;;;;;3.26;93.75;97368.05;106801;1258;70272;-75
2023/01/17 05:02:50;;;;;;;1.90;1.30;;;;;;;3.23;94.41;97373.66;107023;1254;72981;-76
2023/01/17 05:05:21;;;;;;;2.40;1.50;;;;;;;3.19;94.69;97375.93;106907;1253;62541;-77
2023/01/17 05:07:57;;;;;;;3.10;1.30;;;;;;;3.16;94.96;97383.58;107015;1253;60763;-77
2023/01/17 05:10:33;;;;;;;1.80;1.20;;;;;;;3.13;95.64;97392.24;106995;1253;72619;-77
2023/01/17 05:13:01;;;;;;;2.90;1.30;;;;;;;3.09;96.43;97395.77;106631;1258;69974;-75
2023/01/17 05:15:47;;;;;;;1.50;1.00;;;;;;;3.04;96.59;97397.30;106772;1254;71119;-77
2023/01/17 05:18:18;;;;;;;1.50;1.00;;;;;;;2.99;96.96;97403.87;107013;1253;61197;-76
2023/01/17 05:20:45;;;;;;;1.20;0.70;;;;;;;2.96;97.73;97414.88;106656;1254;60335;-75
2023/01/17 05:23:13;;;;;;;1.70;0.80;;;;;;;2.93;97.67;97413.23;107013;1254;72533;-76
2023/01/17 05:25:45;;;;;;;3.60;0.60;;;;;;;2.88;98.05;97428.08;106720;1254;71927;-76
2023/01/17 05:28:20;;;;;;;1.00;0.50;;;;;;;2.81;98.55;97434.52;107122;1253;72696;-77
2023/01/17 05:30:50;;;;;;;1.00;0.60;;;;;;;2.74;98.78;97441.09;107217;1253;60644;-79
2023/01/17 05:33:18;;;;;;;0.60;0.40;;;;;;;2.67;99.34;97452.60;107579;1254;60121;-79
2023/01/17 05:35:44;;;;;;;0.70;0.40;;;;;;;2.62;99.80;97469.16;107765;1254;73554;-77
2023/01/17 05:38:12;;;;;;;0.70;0.30;;;;;;;2.50;99.39;97481.20;107261;1253;70436;-79
2023/01/17 05:40:42;;;;;;;0.60;0.30;;;;;;;2.38;99.02;97491.11;107885;1256;71371;-80
2023/01/17 05:43:12;;;;;;;1.30;0.40;;;;;;;2.26;99.28;97492.00;107894;1254;61295;-79
2023/01/17 05:45:39;;;;;;;0.80;0.40;;;;;;;2.13;99.23;97489.60;107368;1254;61285;-80
2023/01/17 05:48:10;;;;;;;1.10;0.30;;;;;;;1.98;99.41;97532.89;107930;1258;74149;-79
2023/01/17 05:50:37;;;;;;;1.30;0.30;;;;;;;1.87;99.42;97519.25;107720;1254;69780;-79
2023/01/17 05:53:07;;;;;;;0.60;0.30;;;;;;;1.78;99.71;97532.20;108070;1252;71221;-79
2023/01/17 05:55:37;;;;;;;2.70;0.30;;;;;;;1.73;99.94;97519.52;108002;1260;60127;-80
2023/01/17 05:59:06;;;;;;;0.70;0.50;;;;;;;1.67;100.00;97530.31;108094;1253;61297;-79
2023/01/17 06:02:00;;;;;;;0.80;0.30;;;;;;;1.57;100.00;97547.52;107141;1256;72895;-79
2023/01/17 06:04:30;;;;;;;0.70;0.40;;;;;;;1.50;100.00;97548.09;107451;1253;69903;-78
2023/01/17 06:06:59;;;;;;;1.00;0.30;;;;;;;1.45;100.00;97559.52;106801;1254;71476;-77
2023/01/17 06:09:48;;;;;;;1.00;0.30;;;;;;;1.34;100.00;97569.72;106832;1253;61278;-79
2023/01/17 06:13:19;;;;;;;0.30;0.20;;;;;;;1.20;100.00;97570.81;107363;1253;59629;-79
2023/01/17 06:16:16;;;;;;;;;;;;;;;;;;;;;
2023/01/17 06:18:44;;;;;;;0.80;0.40;;;;;;;1.04;100.00;97583.83;107535;1254;70076;-79
2023/01/17 06:22:03;;;;;;;1.00;0.30;;;;;;;0.99;100.00;97583.23;107024;1254;71865;-81
2023/01/17 06:25:20;;;;;;;;;;;;;;;;;;;;;
2023/01/17 06:28:37;;;;;;;;;;;;;;;;;;;;;
2023/01/17 06:31:50;;;;;;;2.20;0.70;;;;;;;1.00;100.00;97597.90;107408;1254;77108;-79
2023/01/17 06:34:27;;;;;;;0.90;0.50;;;;;;;1.06;100.00;97597.50;107169;1253;70205;-80
2023/01/17 06:37:02;;;;;;;1.70;1.00;;;;;;;1.12;100.00;97606.70;107622;1256;73844;-79
2023/01/17 06:40:19;;;;;;;2.80;0.80;;;;;;;1.19;100.00;97611.20;106978;1259;61270;-81
2023/01/17 06:42:46;;;;;;;1.40;0.60;;;;;;;1.26;100.00;97622.17;107494;1254;61163;-78
2023/01/17 06:45:13;;;;;;;2.40;0.60;;;;;;;1.31;100.00;97634.07;107409;1253;74847;-79
2023/01/17 06:47:41;;;;;;;1.10;0.40;;;;;;;1.33;100.00;97639.95;107094;1258;69335;-79
2023/01/17 06:50:15;;;;;;;1.70;0.50;;;;;;;1.33;100.00;97647.05;107016;1254;71138;-82
2023/01/17 06:52:55;;;;;;;1.20;0.50;;;;;;;1.34;100.00;97660.19;107595;1254;59727;-79
2023/01/17 06:56:03;;;;;;;;;;;;;;;;;;;;;
2023/01/17 06:59:03;;;;;;;1.80;0.50;;;;;;;1.22;100.00;97679.67;107695;1253;73363;-80
2023/01/17 07:01:30;;;;;;;1.90;0.70;;;;;;;1.14;100.00;97685.12;108344;1256;68988;-79
2023/01/17 07:03:58;;;;;;;2.70;0.90;;;;;;;1.08;100.00;97679.92;108423;1253;72735;-80
2023/01/17 07:06:43;;;;;;;2.40;0.80;;;;;;;1.05;100.00;97684.52;107865;1257;61234;-79
2023/01/17 07:09:38;;;;;;;1.70;0.60;;;;;;;1.03;100.00;97689.59;107866;1252;61221;-79
2023/01/17 07:12:08;;;;;;;1.70;0.50;;;;;;;1.05;100.00;97696.65;108522;1254;75347;-79
2023/01/17 07:14:35;;;;;;;2.00;0.80;;;;;;;1.10;100.00;97697.58;107200;1259;69320;-79
2023/01/17 07:17:09;;;;;;;1.60;0.80;;;;;;;1.15;100.00;97700.46;107464;1254;72552;-80
2023/01/17 07:19:36;;;;;;;1.40;0.60;;;;;;;1.20;100.00;97703.67;107252;1254;61237;-79
2023/01/17 07:22:03;;;;;;;1.50;0.60;;;;;;;1.25;100.00;97710.20;107884;1254;61177;-78
2023/01/17 07:24:31;;;;;;;3.00;0.90;;;;;;;1.29;100.00;97713.39;108076;1254;75982;-78
2023/01/17 07:26:59;;;;;;;3.00;0.70;;;;;;;1.35;100.00;97721.67;108980;1254;69980;-78
2023/01/17 07:29:26;;;;;;;3.50;0.70;;;;;;;1.39;100.00;97726.48;108343;1254;72432;-77
2023/01/17 07:31:55;;;;;;;3.40;0.60;;;;;;;1.43;100.00;97731.70;107441;1253;62412;-77
2023/01/17 07:34:24;;;;;;;1.80;0.90;;;;;;;1.46;100.00;97737.71;108135;1254;59250;-77
2023/01/17 07:36:53;;;;;;;2.20;0.60;;;;;;;1.48;100.00;97734.20;106837;1254;72165;-76
2023/01/17 07:39:20;;;;;;;2.40;0.60;;;;;;;1.50;100.00;97736.89;106787;1260;70104;-75
2023/01/17 07:41:47;;;;;;;2.20;0.60;;;;;;;1.50;100.00;97745.58;106948;1254;71252;-75
2023/01/17 07:44:17;;;;;;;2.30;0.70;;;;;;;1.51;100.00;97744.63;106914;1254;61217;-75
2023/01/17 07:46:47;;;;;;;4.40;1.30;;;;;;;1.49;100.00;97743.08;107130;1256;61195;-75
2023/01/17 07:49:14;;;;;;;1.70;0.50;;;;;;;1.50;100.00;97746.30;107139;1253;73809;-75
2023/01/17 07:51:46;;;;;;;3.30;0.70;;;;;;;1.53;100.00;97739.62;106727;1260;69632;-75
2023/01/17 07:54:13;;;;;;;2.70;0.90;;;;;;;1.55;100.00;97741.52;107036;1254;71597;-76
2023/01/17 07:56:44;;;;;;;2.20;0.70;;;;;;;1.58;100.00;97740.14;107487;1256;61279;-76
2023/01/17 07:59:11;;;;;;;2.00;0.90;;;;;;;1.57;99.99;97741.30;107106;1254;61186;-79
2023/01/17 08:01:38;;;;;;;3.80;1.20;;;;;;;1.57;100.00;97743.38;107106;1256;73440;-78
2023/01/17 08:04:09;;;;;;;2.30;0.90;;;;;;;1.59;99.91;97754.21;107234;1259;71137;-77
2023/01/17 08:06:38;;;;;;;3.30;1.10;;;;;;;1.63;99.91;97754.80;106992;1256;70528;-75
2023/01/17 08:09:24;;;;;;;4.70;1.20;;;;;;;1.65;99.70;97759.60;107115;1257;62036;-76
2023/01/17 08:12:03;;;;;;;4.30;1.70;;;;;;;1.68;99.49;97762.92;106672;1253;61608;-76
2023/01/17 08:14:33;;;;;;;3.40;1.30;;;;;;;1.69;98.96;97767.47;106958;1254;75126;-76
2023/01/17 08:17:05;;;;;;;3.20;1.60;;;;;;;1.70;98.11;97764.30;106810;1257;70711;-77
2023/01/17 08:19:32;;;;;;;4.10;1.70;;;;;;;1.74;98.13;97768.95;107171;1255;72420;-77
2023/01/17 08:22:03;;;;;;;3.90;1.20;;;;;;;1.78;98.20;97775.81;107153;1260;61133;-77
2023/01/17 08:24:30;;;;;;;4.40;1.40;;;;;;;1.80;98.05;97781.10;107166;1254;61244;-78
2023/01/17 08:26:57;;;;;;;4.80;1.80;;;;;;;1.85;98.00;97790.42;106769;1254;73217;-76
2023/01/17 08:29:24;;;;;;;4.50;1.70;;;;;;;1.88;97.72;97796.52;107132;1254;69937;-76
2023/01/17 08:31:51;;;;;;;3.80;1.80;;;;;;;1.90;96.85;97800.80;106750;1254;71371;-77
2023/01/17 08:34:18;;;;;;;4.00;1.30;;;;;;;1.94;96.70;97805.52;106963;1254;61326;-77
2023/01/17 08:36:48;;;;;;;3.70;1.30;;;;;;;1.99;96.40;97808.13;106728;1260;62177;-76
2023/01/17 08:39:14;;;;;;;5.20;2.00;;;;;;;2.04;96.43;97812.14;106740;1259;73421;-76
2023/01/17 08:41:42;;;;;;;5.30;1.60;;;;;;;2.09;95.90;97817.64;107076;1260;69703;-77
2023/01/17 08:44:09;;;;;;;4.20;1.60;;;;;;;2.10;95.47;97821.48;106657;1254;72372;-77
2023/01/17 08:46:40;;;;;;;3.10;1.00;;;;;;;2.12;95.17;97823.18;106844;1253;61611;-76
2023/01/17 08:49:09;;;;;;;5.70;1.60;;;;;;;2.14;94.85;97830.56;106962;1254;61256;-78
2023/01/17 08:51:37;;;;;;;4.50;1.20;;;;;;;2.19;94.75;97831.55;106806;1253;72608;-76
2023/01/17 08:54:08;;;;;;;4.50;1.40;;;;;;;2.23;94.90;97836.24;107235;1257;69699;-75
2023/01/17 08:56:38;;;;;;;6.40;1.90;;;;;;;2.25;94.14;97842.82;106971;1257;71280;-75
2023/01/17 08:59:05;;;;;;;6.00;1.80;;;;;;;2.29;94.23;97844.56;107016;1254;61359;-74
2023/01/17 09:01:39;;;;;;;5.60;1.90;;;;;;;2.33;93.87;97848.29;106703;1260;61167;-74
2023/01/17 09:04:07;;;;;;;4.70;1.60;;;;;;;2.34;93.06;97853.70;107018;1254;74346;-75
2023/01/17 09:06:47;;;;;;;7.60;1.50;;;;;;;2.36;93.07;97856.69;106765;1254;70639;-75
2023/01/17 09:09:16;;;;;;;4.00;1.20;;;;;;;2.42;92.16;97861.75;106895;1255;70614;-73
2023/01/17 09:11:43;;;;;;;4.20;1.20;;;;;;;2.39;91.11;97865.04;106718;1255;61247;-74
2023/01/17 09:14:28;;;;;;;5.80;1.40;;;;;;;2.34;90.73;97865.58;106924;1256;60506;-74
2023/01/17 09:16:55;;;;;;;5.30;1.80;;;;;;;2.30;90.51;97863.66;106987;1254;75145;-75
2023/01/17 09:19:22;;;;;;;7.60;2.10;;;;;;;2.27;90.23;97868.73;107261;1253;71648;-76
2023/01/17 09:21:49;;;;;;;6.10;2.60;;;;;;;2.28;90.74;97872.21;107100;1254;71230;-73
2023/01/17 09:24:16;;;;;;;5.70;1.40;;;;;;;2.31;90.59;97866.13;106921;1253;61231;-75
2023/01/17 09:26:43;;;;;;;4.80;1.70;;;;;;;2.34;90.64;97867.63;106929;1258;61362;-73
2023/01/17 09:29:12;;;;;;;4.20;1.60;;;;;;;2.34;90.08;97870.92;107099;1254;72266;-75
2023/01/17 09:31:41;;;;;;;4.70;1.40;;;;;;;2.35;89.62;97867.30;106796;1254;71422;-74
2023/01/17 09:34:07;;;;;;;3.30;1.50;;;;;;;2.37;89.40;97866.95;107456;1254;72658;-75
2023/01/17 09:36:34;;;;;;;4.50;1.60;;;;;;;2.39;88.87;97872.23;107081;1258;61438;-75
2023/01/17 09:39:02;;;;;;;4.10;1.50;;;;;;;2.41;88.99;97871.32;107230;1256;61147;-75
2023/01/17 09:41:51;;;;;;;4.20;1.20;;;;;;;2.47;89.18;97871.65;107071;1256;74631;-75
2023/01/17 09:44:34;;;;;;;2.70;1.30;;;;;;;2.50;88.55;97879.17;106822;1254;70944;-75
2023/01/17 09:47:17;;;;;;;3.30;1.10;;;;;;;2.51;88.00;97887.09;107040;1254;72704;-74
2023/01/17 09:49:46;;;;;;;4.20;0.90;;;;;;;2.53;87.07;97888.66;106897;1254;61234;-74
2023/01/17 09:52:19;;;;;;;3.40;1.10;;;;;;;2.57;87.51;97887.85;107338;1254;61244;-77
2023/01/17 09:54:48;;;;;;;4.10;1.10;;;;;;;2.58;85.87;97892.40;107046;1253;74515;-75
2023/01/17 09:57:43;;;;;;;5.00;1.00;;;;;;;2.64;86.62;97895.45;106899;1254;69637;-76
2023/01/17 10:00:52;;;;;;;3.90;1.20;;;;;;;2.71;86.10;97902.42;107083;1253;72040;-76
2023/01/17 10:03:36;;;;;;;4.60;0.90;;;;;;;2.75;84.78;97908.36;106820;1254;61330;-77
2023/01/17 10:06:15;;;;;;;4.70;1.10;;;;;;;2.77;83.90;97911.88;107033;1254;61319;-78
2023/01/17 10:08:47;;;;;;;6.30;1.00;;;;;;;2.81;83.84;97911.29;106978;1254;74429;-78
2023/01/17 10:11:42;;;;;;;5.40;0.90;;;;;;;2.86;83.97;97907.61;107380;1252;68654;-77
2023/01/17 10:14:45;;;;;;;3.50;1.00;;;;;;;2.94;83.27;97913.93;107010;1256;71524;-77
2023/01/17 10:17:37;;;;;;;3.10;1.00;;;;;;;2.96;82.54;97914.23;106928;1254;61112;-78
2023/01/17 10:20:32;;;;;;;6.50;1.30;;;;;;;2.99;82.27;97915.00;106981;1255;61476;-77
2023/01/17 10:23:21;;;;;;;5.40;1.50;;;;;;;2.98;81.66;97917.46;107200;1256;74479;-78
2023/01/17 10:25:51;;;;;;;4.30;1.30;;;;;;;2.97;81.05;97927.45;109177;1254;71332;-78
2023/01/17 10:28:21;;;;;;;6.80;1.70;;;;;;;2.95;80.75;97923.69;109036;1254;71475;-78
2023/01/17 10:30:51;;;;;;;5.30;1.40;;;;;;;2.99;81.38;97926.66;108095;1254;61286;-78
2023/01/17 10:33:23;;;;;;;5.80;1.90;;;;;;;3.00;81.28;97926.54;107341;1254;61216;-77
2023/01/17 10:35:54;;;;;;;3.00;1.10;;;;;;;3.00;80.49;97926.02;108314;1253;74606;-78
2023/01/17 10:38:33;;;;;;;4.10;1.30;;;;;;;3.05;80.54;97924.23;106928;1257;69915;-78
2023/01/17 10:41:00;;;;;;;4.30;1.00;;;;;;;3.03;78.51;97925.02;107106;1257;72668;-78
2023/01/17 10:43:43;;;;;;;4.40;1.60;;;;;;;3.07;78.21;97921.16;106910;1253;61613;-78
2023/01/17 10:46:41;;;;;;;3.10;1.30;;;;;;;3.11;78.02;97926.38;107459;1254;61262;-77
2023/01/17 10:49:16;;;;;;;3.40;1.50;;;;;;;3.17;78.07;97926.66;107649;1254;73743;-77
2023/01/17 10:51:58;;;;;;;5.00;1.20;;;;;;;3.20;78.41;97924.08;107049;1253;71238;-77
2023/01/17 10:54:45;;;;;;;3.50;1.00;;;;;;;3.24;77.58;97929.98;107048;1254;72535;-78
2023/01/17 10:57:20;;;;;;;4.70;1.10;;;;;;;3.24;76.91;97927.45;106811;1257;61823;-77
2023/01/17 10:59:47;;;;;;;3.30;0.90;;;;;;;3.32;77.68;97921.83;106953;1253;61384;-78
2023/01/17 11:02:22;;;;;;;5.00;0.80;;;;;;;3.36;77.11;97922.76;106787;1260;75324;-79
2023/01/17 11:04:56;;;;;;;5.40;1.10;;;;;;;3.43;77.95;97927.35;107349;1254;71133;-80
2023/01/17 11:07:26;;;;;;;5.40;1.10;;;;;;;3.46;76.98;97922.08;106825;1259;71459;-78
2023/01/17 11:09:55;;;;;;;3.30;1.00;;;;;;;3.52;76.69;97928.75;106695;1254;61239;-77
2023/01/17 11:12:29;;;;;;;2.70;0.70;;;;;;;3.52;76.46;97926.41;106848;1253;61176;-77
2023/01/17 11:15:01;;;;;;;3.70;0.80;;;;;;;3.57;76.87;97927.43;107003;1257;73624;-77
2023/01/17 11:17:29;;;;;;;2.40;0.80;;;;;;;3.70;77.42;97925.67;106836;1257;69699;-75
2023/01/17 11:20:15;;;;;;;3.30;1.00;;;;;;;3.80;76.71;97925.66;106533;1254;72464;-78
2023/01/17 11:22:59;;;;;;;4.10;1.00;;;;;;;3.85;74.98;97931.19;106817;1253;61260;-77
2023/01/17 11:25:27;;;;;;;5.10;1.00;;;;;;;3.89;74.27;97930.91;107135;1253;61340;-76
2023/01/17 11:28:21;;;;;;;2.80;0.80;;;;;;;4.01;73.97;97936.86;106679;1253;74530;-77
2023/01/17 11:30:56;;;;;;;2.90;0.80;;;;;;;4.04;74.01;97930.69;106764;1254;70738;-76
2023/01/17 11:33:45;;;;;;;3.10;0.80;;;;;;;4.12;74.31;97928.95;106653;1259;72745;-76
2023/01/17 11:36:23;;;;;;;3.80;1.00;;;;;;;4.32;73.20;97935.09;106797;1253;61141;-76
2023/01/17 11:39:01;;;;;;;5.30;1.10;;;;;;;4.60;72.77;97925.94;106796;1253;61126;-75
2023/01/17 11:41:40;;;;;;;4.70;1.50;;;;;;;5.00;71.98;97935.82;106966;1252;73608;-75
2023/01/17 11:44:27;;;;;;;4.40;1.40;;;;;;;5.24;70.53;97929.91;107087;1254;71964;-76
2023/01/17 11:47:13;;;;;;;5.60;1.40;;;;;;;5.53;69.00;97931.33;106726;1254;70773;-76
2023/01/17 11:49:45;;;;;;;4.10;1.10;;;;;;;5.68;68.11;97936.58;106834;1254;61228;-73
2023/01/17 11:52:21;;;;;;;3.80;0.90;;;;;;;5.84;67.62;97931.14;106645;1254;61237;-77
2023/01/17 11:54:50;;;;;;;3.70;1.20;;;;;;;5.97;66.66;97937.84;106601;1254;73467;-76
2023/01/17 11:57:30;;;;;;;3.60;1.10;;;;;;;6.25;66.33;97926.38;106649;1258;71100;-76
2023/01/17 12:00:14;;;;;;;6.40;1.40;;;;;;;6.53;65.38;97931.17;107182;1253;71229;-78
2023/01/17 12:03:12;;;;;;;4.60;1.10;;;;;;;6.69;63.79;97936.63;107025;1253;61116;-77
2023/01/17 12:05:53;;;;;;;4.90;1.30;;;;;;;6.93;62.62;97935.15;106872;1253;61359;-76
2023/01/17 12:08:39;;;;;;;4.00;1.00;;;;;;;7.16;60.62;97941.79;107071;1252;73125;-77
2023/01/17 12:11:30;;;;;;;3.60;1.70;;;;;;;7.37;59.37;97940.61;107168;1253;72336;-78
2023/01/17 12:14:15;;;;;;;3.10;1.10;;;;;;;7.70;58.84;97934.70;106686;1260;72696;-75
2023/01/17 12:16:48;;;;;;;3.70;1.20;;;;;;;7.71;58.62;97934.29;107227;1259;62844;-75
2023/01/17 12:19:42;;;;;;;4.50;1.00;;;;;;;7.59;58.33;97934.04;108092;1254;59106;-76
2023/01/17 12:22:28;;;;;;;3.30;0.70;;;;;;;7.53;57.76;97942.23;107665;1256;74702;-77
2023/01/17 12:25:13;;;;;;;1.90;0.60;;;;;;;7.52;58.05;97939.77;107478;1254;70995;-76
2023/01/17 12:28:00;;;;;;;3.30;0.90;;;;;;;6.96;58.37;97946.98;106843;1256;71609;-75
2023/01/17 12:30:41;;;;;;;3.30;0.70;;;;;;;6.59;59.96;97945.42;107025;1256;61343;-76
2023/01/17 12:33:30;;;;;;;5.30;1.10;;;;;;;6.41;60.72;97947.52;106640;1254;61152;-77
2023/01/17 12:36:37;;;;;;;5.70;1.20;;;;;;;6.08;61.91;97945.38;107159;1254;76387;-75
2023/01/17 12:39:09;;;;;;;2.80;0.80;;;;;;;6.03;61.95;97944.97;107050;1257;71681;-77
2023/01/17 12:41:57;;;;;;;4.20;0.90;;;;;;;5.89;62.59;97954.19;106647;1254;70151;-77
2023/01/17 12:44:53;;;;;;;3.40;1.10;;;;;;;5.81;62.55;97953.39;106843;1254;61154;-77
2023/01/17 12:47:21;;;;;;;4.00;0.70;;;;;;;5.68;62.93;97950.42;106875;1254;59906;-77
2023/01/17 12:49:57;;;;;;;4.60;0.90;;;;;;;5.55;63.13;97955.42;106462;1254;74782;-75
2023/01/17 12:52:49;;;;;;;3.10;0.90;;;;;;;5.41;63.33;97959.78;106967;1252;69432;-76
2023/01/17 12:55:30;;;;;;;3.80;0.70;;;;;;;5.29;63.67;97960.75;107056;1253;70566;-77
2023/01/17 12:58:00;;;;;;;4.30;1.10;;;;;;;5.21;63.61;97957.61;106831;1254;61406;-77
2023/01/17 13:00:28;;;;;;;6.30;1.10;;;;;;;5.12;64.52;97956.97;107258;1253;61263;-78
2023/01/17 13:03:19;;;;;;;4.70;1.00;;;;;;;5.09;64.81;97963.00;106858;1254;73581;-77
2023/01/17 13:05:47;;;;;;;6.30;1.60;;;;;;;4.91;64.54;97965.95;106793;1256;69829;-75
2023/01/17 13:08:20;;;;;;;7.20;1.90;;;;;;;4.79;65.12;97968.17;106982;1254;73925;-76
2023/01/17 13:10:56;;;;;;;11.20;4.40;;;;;;;4.78;66.11;97963.77;107291;1253;61365;-76
2023/01/17 13:13:25;;;;;;;8.70;3.50;;;;;;;4.81;66.85;97967.75;107150;1253;61173;-77
2023/01/17 13:15:58;;;;;;;3.90;1.30;;;;;;;4.73;65.64;97972.50;106745;1253;73134;-77
2023/01/17 13:18:28;;;;;;;6.30;1.20;;;;;;;4.65;64.38;97978.80;106933;1253;71882;-74
2023/01/17 13:21:26;;;;;;;5.50;1.20;;;;;;;4.66;65.23;97974.73;106778;1254;73623;-78
2023/01/17 13:24:00;;;;;;;3.90;1.10;;;;;;;4.90;65.27;97980.58;106563;1254;61233;-76
2023/01/17 13:26:55;;;;;;;3.40;1.00;;;;;;;5.30;63.83;97982.18;106607;1254;61346;-75
2023/01/17 13:30:00;;;;;;;4.00;1.10;;;;;;;5.82;61.86;97982.27;106744;1258;73742;-76
2023/01/17 13:33:14;;;;;;;4.90;1.80;;;;;;;5.98;60.62;97987.30;106723;1256;69588;-77
2023/01/17 13:36:08;;;;;;;4.00;1.30;;;;;;;5.85;61.26;97988.04;106712;1254;72010;-79
2023/01/17 13:38:34;;;;;;;1.90;1.00;;;;;;;5.78;61.27;97983.27;106568;1257;61317;-77
2023/01/17 13:41:32;;;;;;;4.60;1.30;;;;;;;5.73;61.39;97991.94;107031;1253;61264;-76